ADDS METAR Data INFO
IDs: Format: Raw Decoded Include TAF

Data at: 2318 UTC 15 Jul 2018

KORH 152254Z VRB03KT 10SM -RA FEW065 OVC100 25/20 A2997
KORH 152154Z VRB03KT 10SM CLR 28/19 A2995
KORH 152054Z 15003KT 10SM CLR 28/19 A2996
KORH 151954Z 21004KT 10SM CLR 27/18 A2996
KORH 151854Z 06004KT 10SM FEW048 BKN065 OVC080 27/20 A2997 -RA
KORH 151754Z VBR03KT 10SM SCT080 28/19 A2998
KORH 151654Z 24008KT 10SM SCT035 BKN046 28/19 A2998
KORH 151554Z 28003KT 10SM SCT028 BKN035 27/19 A2998
KORH 151504Z 00000KT 10SM BKN025 BKN030 25/20 A2999
KORH 151454Z 13006KT 10SM SCT023 26/21 A2999
KORH 151354Z 10004KT 10SM BKN018 23/20 A2999
KORH 151254Z VRB04KTKT 10SM CLR 24/20 A3000
KORH 151154Z 30004KT 10SM SCT090 OVC110 22/19 A3001
KORH 151054Z 31010KT 10SM OVC090 21/18 A3000
KORH 150954Z 27008KT 10SM OVC100 20/18 A2999
KORH 150354Z 18005KT 10SM FEW008 19/17 A3005
KORH 150254Z 00000KT 10SM FEW010 BKN050 19/17 A3007
KORH 150154Z 20005KT 10SM SCT075 SCT095 20/17 A3007
KORH 150054Z 18008KT 10SM FEW070 OVC090 21/17 A3006
KORH 142354Z 18007KT 10SM FEW080 21/18 A3006
KORH 142254Z 19010KT 10SM FEW065 SCT090 BKN120 23/18 A3006
KORH 142154Z 19007KT 10SM OVC095 24/18 A3007
KORH 142054Z 21005KT 10SM SCT075 24/19 A3008
KORH 141954Z 20006KT 10SM SCT032 BKN090 26/18 A3010
KORH 141917Z VRB04KT 10SM SCT028 BKN035 OVC080 25/18 A3010
KORH 141854Z 17009KT 10SM BKN029 BKN080 BKN110 26/18 A3010
KORH 141837Z 20007KT 10SM BKN029 OVC100 25/18 A3011
KORH 141754Z 14004KT 10SM SCT024 BKN120 24/18 A3012
KORH 141721Z 15007KT 10SM BKN021 23/18 A3013
KORH 141654Z 12005KT 10SM SCT020 SCT100 23/18 A3014
KORH 141554Z 16008KT 10SM BKN016 BKN100 BKN110 22/17 A3015
KORH 141454Z 14007KT 10SM BKN016 OVC100 21/17 A3016
KORH 141354Z 14005KT 10SM SCT012 BKN110 20/17 A3017